Time;durP1;ratioP1;P1;durP2;ratioP2;P2;SDS_P1;SDS_P2;PMS_P1;PMS_P2;Temp;Humidity;BMP_temperature;BMP_pressure;BME280_temperature;BME280_humidity;BME280_pressure;Samples;Min_cycle;Max_cycle;Signal;HPM_P1;HPM_P2
2021/09/07 00:01:31;;;;;;;19.30;10.88;;;;;;;14.31;74.24;96980.72;4956536;29;20517;-75
2021/09/07 00:03:58;;;;;;;15.15;10.68;;;;;;;14.23;74.62;96978.81;4956237;29;20054;-77
2021/09/07 00:06:26;;;;;;;19.83;11.50;;;;;;;14.21;74.59;96978.34;4955525;29;20126;-76
2021/09/07 00:08:52;;;;;;;18.50;11.07;;;;;;;14.24;75.02;96978.47;4956251;29;20055;-76
2021/09/07 00:11:19;;;;;;;15.18;11.02;;;;;;;14.26;75.16;96984.44;4955592;29;20051;-79
2021/09/07 00:13:45;;;;;;;15.93;11.25;;;;;;;14.29;75.24;96983.78;4956067;29;20430;-74
2021/09/07 00:16:12;;;;;;;17.55;11.43;;;;;;;14.28;75.55;96982.16;4955700;29;20513;-75
2021/09/07 00:18:38;;;;;;;19.60;12.48;;;;;;;14.27;75.28;96982.50;4956139;29;20063;-76
2021/09/07 00:21:05;;;;;;;17.52;11.70;;;;;;;14.24;74.92;96974.94;4955441;29;20044;-77
2021/09/07 00:23:33;;;;;;;17.13;11.23;;;;;;;14.25;75.78;96965.56;4956169;29;20061;-75
2021/09/07 00:25:59;;;;;;;16.17;11.32;;;;;;;14.29;75.70;96972.81;4955853;29;20051;-78
2021/09/07 00:28:26;;;;;;;18.58;12.13;;;;;;;14.28;75.12;96973.97;4955407;29;20051;-76
2021/09/07 00:30:52;;;;;;;17.38;11.23;;;;;;;14.24;74.83;96973.00;4955720;29;20392;-75
2021/09/07 00:33:19;;;;;;;18.73;11.95;;;;;;;14.27;74.67;96972.34;4955451;29;20070;-77
2021/09/07 00:35:45;;;;;;;15.65;11.35;;;;;;;14.29;74.81;96972.81;4955203;29;20130;-76
2021/09/07 00:38:12;;;;;;;16.83;10.90;;;;;;;14.31;75.01;96981.53;4954960;28;20052;-76
2021/09/07 00:40:39;;;;;;;17.08;11.15;;;;;;;14.28;75.13;96971.22;4955667;29;20126;-79
2021/09/07 00:43:06;;;;;;;17.70;11.30;;;;;;;14.26;75.59;96973.50;4955078;29;20058;-78
2021/09/07 00:45:32;;;;;;;15.52;11.25;;;;;;;14.27;75.69;96974.28;4955624;29;20043;-77
2021/09/07 00:47:59;;;;;;;16.30;11.80;;;;;;;14.28;74.98;96975.88;4955678;29;20529;-76
2021/09/07 00:50:26;;;;;;;15.00;11.13;;;;;;;14.25;75.31;96982.84;4954867;29;20047;-77
2021/09/07 00:52:55;;;;;;;15.18;11.10;;;;;;;14.22;75.71;96979.94;4955151;29;20410;-77
2021/09/07 00:55:23;;;;;;;14.93;11.57;;;;;;;14.20;75.91;96974.78;4954893;29;20054;-75
2021/09/07 00:57:52;;;;;;;15.25;10.80;;;;;;;14.18;75.57;96970.75;4955282;29;20059;-76
2021/09/07 01:00:19;;;;;;;16.95;11.57;;;;;;;14.18;75.97;96977.03;4954604;29;20055;-77
2021/09/07 01:02:45;;;;;;;16.30;11.30;;;;;;;14.25;74.58;96974.63;4955451;29;20051;-78
2021/09/07 01:05:12;;;;;;;15.55;11.45;;;;;;;14.21;75.09;96979.13;4954232;29;20043;-77
2021/09/07 01:07:39;;;;;;;16.13;10.63;;;;;;;14.17;75.10;96986.41;4954927;29;20043;-76
2021/09/07 01:10:08;;;;;;;18.85;11.80;;;;;;;14.13;75.18;96970.94;4954466;28;20055;-75
2021/09/07 01:12:36;;;;;;;14.80;11.10;;;;;;;14.16;75.03;96976.56;4955182;29;20538;-76
2021/09/07 01:15:04;;;;;;;15.68;11.05;;;;;;;14.13;74.98;96977.22;4954752;29;20059;-78
2021/09/07 01:17:31;;;;;;;15.02;10.30;;;;;;;14.10;75.40;96975.13;4955432;29;20040;-76
2021/09/07 01:19:57;;;;;;;18.63;12.02;;;;;;;14.07;75.23;96971.09;4954981;29;20078;-77
2021/09/07 01:22:24;;;;;;;14.20;10.85;;;;;;;14.08;75.65;96966.44;4954233;29;20047;-76
2021/09/07 01:24:53;;;;;;;16.08;11.73;;;;;;;14.11;75.55;96971.25;4954964;29;20051;-76
2021/09/07 01:27:20;;;;;;;15.73;10.18;;;;;;;14.14;74.95;96967.84;4954436;29;20052;-76
2021/09/07 01:29:48;;;;;;;15.80;11.32;;;;;;;14.12;75.27;96972.88;4954853;29;20047;-76
2021/09/07 01:32:16;;;;;;;16.27;12.05;;;;;;;14.08;75.98;96963.69;4952715;29;20130;-76
2021/09/07 01:34:42;;;;;;;17.90;12.30;;;;;;;14.06;75.95;96964.03;4954666;29;20048;-77
2021/09/07 01:37:09;;;;;;;17.42;11.77;;;;;;;14.04;75.87;96960.00;4954244;29;20047;-75
2021/09/07 01:39:37;;;;;;;17.60;11.25;;;;;;;14.02;75.60;96951.31;4954542;29;20048;-76
2021/09/07 01:42:05;;;;;;;17.08;11.73;;;;;;;13.97;75.46;96954.22;4954198;29;20105;-76
2021/09/07 01:44:33;;;;;;;17.50;12.48;;;;;;;13.91;75.45;96950.03;4954601;29;20047;-76
2021/09/07 01:46:59;;;;;;;19.80;12.45;;;;;;;13.86;75.57;96947.47;4954423;29;20058;-75
2021/09/07 01:49:26;;;;;;;15.82;11.25;;;;;;;13.83;75.33;96947.00;4953915;29;20044;-75
2021/09/07 01:51:52;;;;;;;18.05;12.68;;;;;;;13.79;75.66;96946.03;4954274;29;20055;-76
2021/09/07 01:54:21;;;;;;;18.23;11.90;;;;;;;13.79;75.71;96948.78;4953937;28;20557;-76
2021/09/07 01:56:47;;;;;;;18.48;11.98;;;;;;;13.77;75.71;96945.53;4954632;29;20052;-78
2021/09/07 01:59:15;;;;;;;15.98;11.73;;;;;;;13.73;75.16;96947.34;4953768;29;20052;-75
2021/09/07 02:01:42;;;;;;;16.80;11.93;;;;;;;13.72;75.79;96953.91;4954200;28;20047;-75
2021/09/07 02:04:08;;;;;;;16.13;11.43;;;;;;;13.71;75.72;96946.84;4952843;29;20055;-76
2021/09/07 02:06:35;;;;;;;18.23;11.13;;;;;;;13.69;75.37;96949.09;4954145;29;20044;-76
2021/09/07 02:09:01;;;;;;;15.55;10.93;;;;;;;13.68;75.57;96943.97;4953812;29;20051;-83
2021/09/07 02:11:28;;;;;;;16.65;9.90;;;;;;;13.66;75.80;96957.94;4953799;29;20054;-76
2021/09/07 02:13:54;;;;;;;15.63;11.13;;;;;;;13.72;75.91;96948.44;4954051;29;20051;-75
2021/09/07 02:16:22;;;;;;;13.30;9.77;;;;;;;13.80;75.47;96949.56;4953434;29;20047;-76
2021/09/07 02:18:48;;;;;;;14.15;10.18;;;;;;;13.83;75.03;96949.75;4953783;29;20530;-75
2021/09/07 02:21:15;;;;;;;13.13;9.85;;;;;;;13.85;75.00;96952.16;4952575;28;20058;-76
2021/09/07 02:23:42;;;;;;;14.80;10.57;;;;;;;13.86;74.80;96955.69;4953843;29;20047;-77
2021/09/07 02:26:08;;;;;;;14.60;10.75;;;;;;;13.82;75.58;96956.31;4953097;29;20051;-75
2021/09/07 02:28:35;;;;;;;14.07;10.20;;;;;;;13.78;75.39;96955.38;4953797;29;20047;-75
2021/09/07 02:31:01;;;;;;;15.95;10.50;;;;;;;13.75;75.36;96961.50;4953246;29;20054;-80
2021/09/07 02:33:29;;;;;;;12.98;9.73;;;;;;;13.78;75.75;96951.81;4953003;29;20043;-75
2021/09/07 02:35:55;;;;;;;14.45;9.93;;;;;;;13.72;75.31;96953.91;4953630;29;20053;-76
2021/09/07 02:38:22;;;;;;;14.57;10.45;;;;;;;13.71;75.35;96943.31;4952869;29;20052;-76
2021/09/07 02:40:48;;;;;;;16.27;10.40;;;;;;;13.69;75.72;96953.78;4953354;29;20074;-76
2021/09/07 02:43:15;;;;;;;15.07;8.75;;;;;;;13.66;75.00;96938.78;4953013;29;20043;-75
2021/09/07 02:45:41;;;;;;;12.93;9.02;;;;;;;13.62;74.91;96946.03;4953508;29;20047;-77
2021/09/07 02:48:08;;;;;;;16.83;10.90;;;;;;;13.60;74.71;96951.03;4953074;29;20051;-76
2021/09/07 02:50:36;;;;;;;13.95;9.27;;;;;;;13.58;74.93;96947.84;4953246;29;20047;-76
2021/09/07 02:53:02;;;;;;;13.40;9.30;;;;;;;13.56;75.26;96944.59;4952878;29;20061;-78
2021/09/07 02:55:29;;;;;;;12.75;9.27;;;;;;;13.55;75.34;96943.00;4953129;29;20047;-76
2021/09/07 02:57:55;;;;;;;15.18;9.32;;;;;;;13.53;75.08;96934.31;4953032;29;20050;-77
2021/09/07 03:00:22;;;;;;;13.18;8.98;;;;;;;13.49;74.97;96933.34;4952688;29;20066;-76
2021/09/07 03:02:48;;;;;;;14.45;9.48;;;;;;;13.43;74.79;96929.97;4952491;29;20054;-76
2021/09/07 03:05:15;;;;;;;13.30;9.15;;;;;;;13.41;75.21;96936.88;4952624;29;20055;-77
2021/09/07 03:07:43;;;;;;;15.57;10.38;;;;;;;13.40;75.39;96940.72;4953020;29;20054;-76
2021/09/07 03:10:10;;;;;;;14.07;8.73;;;;;;;13.38;75.94;96937.53;4952424;29;20052;-78
2021/09/07 03:12:37;;;;;;;12.80;8.68;;;;;;;13.41;75.76;96948.63;4953106;29;20070;-76
2021/09/07 03:15:04;;;;;;;14.10;9.32;;;;;;;13.49;75.48;96941.56;4952376;29;20102;-76
2021/09/07 03:17:30;;;;;;;14.80;9.07;;;;;;;13.49;75.55;96941.56;4952827;29;20058;-78
2021/09/07 03:19:57;;;;;;;16.70;8.65;;;;;;;13.52;75.34;96938.16;4952869;29;20077;-77
2021/09/07 03:22:23;;;;;;;17.25;9.48;;;;;;;13.46;75.13;96942.19;4952162;29;20043;-75
2021/09/07 03:24:51;;;;;;;14.38;9.63;;;;;;;13.43;75.43;96940.91;4952894;29;20422;-76
2021/09/07 03:27:18;;;;;;;13.45;9.57;;;;;;;13.44;75.99;96938.97;4952278;29;20047;-75
2021/09/07 03:29:44;;;;;;;14.60;9.18;;;;;;;13.50;75.22;96945.88;4952598;29;20384;-77
2021/09/07 03:32:11;;;;;;;13.50;8.80;;;;;;;13.50;75.23;96946.69;4951574;28;20093;-76
2021/09/07 03:34:37;;;;;;;14.43;9.38;;;;;;;13.47;75.54;96946.56;4952941;29;20059;-77
2021/09/07 03:37:04;;;;;;;14.18;9.48;;;;;;;13.42;75.21;96943.97;4952760;29;20418;-78
2021/09/07 03:39:31;;;;;;;13.80;8.68;;;;;;;13.36;74.96;96946.03;4952861;29;20058;-76
2021/09/07 03:41:58;;;;;;;13.77;9.70;;;;;;;13.32;74.76;96934.94;4952776;29;20047;-76
2021/09/07 03:44:25;;;;;;;14.20;9.25;;;;;;;13.29;75.23;96938.31;4952414;29;20051;-76
2021/09/07 03:46:51;;;;;;;13.20;9.73;;;;;;;13.28;75.71;96939.44;4952864;29;20059;-75
2021/09/07 03:49:18;;;;;;;12.30;8.65;;;;;;;13.37;74.97;96939.47;4952358;29;20055;-75
2021/09/07 03:51:44;;;;;;;12.38;9.13;;;;;;;13.41;75.15;96942.34;4952848;29;20043;-77
2021/09/07 03:54:11;;;;;;;14.63;9.00;;;;;;;13.36;75.32;96939.75;4952251;29;20450;-77
2021/09/07 03:56:38;;;;;;;14.65;9.38;;;;;;;13.34;75.40;96944.75;4952497;29;20055;-75
2021/09/07 03:59:05;;;;;;;13.30;9.02;;;;;;;13.30;75.53;96945.38;4952200;29;20047;-80
2021/09/07 04:01:32;;;;;;;13.05;9.43;;;;;;;13.25;75.32;96945.56;4952450;29;20043;-75
2021/09/07 04:03:59;;;;;;;12.75;8.93;;;;;;;13.24;75.89;96946.69;4951678;29;20051;-76
2021/09/07 04:06:25;;;;;;;13.43;8.48;;;;;;;13.28;74.82;96950.38;4951509;29;20043;-76
2021/09/07 04:08:52;;;;;;;13.00;8.82;;;;;;;13.27;75.12;96948.78;4952405;29;20526;-75
2021/09/07 04:11:18;;;;;;;13.88;8.55;;;;;;;13.20;75.24;96945.69;4951841;29;20057;-76
2021/09/07 04:13:45;;;;;;;18.20;8.85;;;;;;;13.15;75.50;96943.09;4952363;29;20058;-76
2021/09/07 04:16:12;;;;;;;13.23;8.60;;;;;;;13.16;75.72;96942.00;4951904;29;20059;-75
2021/09/07 04:18:39;;;;;;;16.52;9.52;;;;;;;13.19;75.37;96938.59;4952466;29;20055;-78
2021/09/07 04:21:08;;;;;;;13.32;9.18;;;;;;;13.18;75.76;96939.72;4951377;29;20043;-79
2021/09/07 04:23:34;;;;;;;12.75;8.75;;;;;;;13.15;75.40;96937.63;4952373;29;20533;-78
2021/09/07 04:26:01;;;;;;;13.95;8.73;;;;;;;13.13;75.12;96937.16;4952446;29;20074;-75
2021/09/07 04:28:27;;;;;;;15.18;9.40;;;;;;;13.11;75.03;96933.94;4951823;29;20121;-76
2021/09/07 04:30:54;;;;;;;12.07;8.98;;;;;;;13.06;75.61;96943.09;4952201;29;20494;-76
2021/09/07 04:33:22;;;;;;;13.13;9.65;;;;;;;13.05;75.88;96948.91;4951033;29;20061;-75
2021/09/07 04:35:48;;;;;;;12.40;8.88;;;;;;;13.03;75.38;96942.94;4952016;29;20051;-75
2021/09/07 04:38:14;;;;;;;15.85;9.10;;;;;;;13.03;75.80;96940.19;4951390;28;20043;-75
2021/09/07 04:40:41;;;;;;;14.18;9.50;;;;;;;13.06;75.96;96945.03;4952159;29;20048;-76
2021/09/07 04:43:08;;;;;;;12.93;9.18;;;;;;;13.04;75.84;96944.53;4951576;28;20047;-76
2021/09/07 04:45:34;;;;;;;14.63;9.30;;;;;;;13.04;75.67;96934.41;4955311;29;20527;-75
2021/09/07 04:48:01;;;;;;;15.02;9.80;;;;;;;13.03;75.40;96942.94;4955449;29;20051;-76
2021/09/07 04:50:29;;;;;;;14.80;8.60;;;;;;;13.02;75.24;96944.06;4955289;29;20047;-79
2021/09/07 04:52:55;;;;;;;16.23;8.93;;;;;;;13.05;74.98;96935.22;4955419;29;20047;-81
2021/09/07 04:55:22;;;;;;;13.40;8.95;;;;;;;13.06;75.17;96942.31;4954901;29;20047;-76
2021/09/07 04:57:49;;;;;;;13.32;8.65;;;;;;;13.03;74.96;96942.94;4955322;29;20051;-76
2021/09/07 05:00:16;;;;;;;13.63;9.20;;;;;;;13.01;75.29;96940.53;4954843;29;20557;-76
2021/09/07 05:02:42;;;;;;;14.02;8.38;;;;;;;13.06;74.71;96955.97;4954637;29;20056;-80
2021/09/07 05:05:10;;;;;;;12.88;9.27;;;;;;;13.13;74.32;96956.28;4954675;29;20051;-76
2021/09/07 05:07:38;;;;;;;14.57;9.55;;;;;;;13.06;75.44;96955.97;4955571;29;20051;-75
2021/09/07 05:10:06;;;;;;;14.73;8.95;;;;;;;13.04;75.38;96958.19;4954499;29;20051;-76
2021/09/07 05:12:33;;;;;;;14.43;8.90;;;;;;;13.00;75.24;96954.50;4955323;29;20047;-79
2021/09/07 05:14:59;;;;;;;14.70;9.65;;;;;;;12.95;74.62;96951.94;4955086;29;20503;-80
2021/09/07 05:17:26;;;;;;;13.20;8.80;;;;;;;12.92;75.16;96963.50;4954182;29;20051;-79
2021/09/07 05:19:52;;;;;;;12.90;9.20;;;;;;;12.93;75.30;96965.91;4954725;29;20055;-77
2021/09/07 05:22:19;;;;;;;15.15;9.73;;;;;;;12.95;75.60;96968.34;4954122;29;20051;-75
2021/09/07 05:24:47;;;;;;;13.75;9.32;;;;;;;13.01;75.11;96972.53;4954696;29;20392;-75
2021/09/07 05:27:13;;;;;;;16.17;9.48;;;;;;;13.08;75.16;96970.13;4954392;29;20055;-75
2021/09/07 05:29:40;;;;;;;13.70;8.55;;;;;;;13.16;75.09;96965.81;4954801;29;20410;-76
2021/09/07 05:32:07;;;;;;;13.43;9.30;;;;;;;13.22;75.38;96972.75;4953920;29;20047;-77
2021/09/07 05:34:33;;;;;;;17.50;9.48;;;;;;;13.30;74.80;96975.47;4954237;29;20806;-75
2021/09/07 05:37:00;;;;;;;14.63;8.52;;;;;;;13.34;74.52;96981.13;4954608;29;20051;-75
2021/09/07 05:39:26;;;;;;;14.70;9.27;;;;;;;13.34;74.64;96985.78;4953777;29;20054;-77
2021/09/07 05:41:55;;;;;;;12.18;8.40;;;;;;;13.37;75.28;96982.44;4954552;29;20043;-77
2021/09/07 05:44:22;;;;;;;13.63;9.40;;;;;;;13.38;75.16;96984.84;4954198;29;20058;-79
2021/09/07 05:46:49;;;;;;;13.77;8.82;;;;;;;13.44;74.77;96991.75;4954572;29;20052;-75
2021/09/07 05:49:16;;;;;;;12.15;8.80;;;;;;;13.53;74.20;96991.78;4953575;29;20059;-75
2021/09/07 05:51:44;;;;;;;14.63;9.57;;;;;;;13.53;74.53;96989.84;4954213;29;20535;-77
2021/09/07 05:54:10;;;;;;;16.73;9.50;;;;;;;13.61;75.07;97001.09;4953696;29;20047;-76
2021/09/07 05:56:37;;;;;;;14.25;9.55;;;;;;;13.65;74.25;97002.88;4953286;28;20051;-75
2021/09/07 05:59:05;;;;;;;13.63;9.32;;;;;;;13.67;74.46;97006.06;4953678;29;20047;-75
2021/09/07 06:01:31;;;;;;;14.05;8.70;;;;;;;13.69;75.09;97003.84;4954200;29;20510;-76
2021/09/07 06:03:58;;;;;;;15.95;9.45;;;;;;;13.80;74.59;96996.91;4953121;29;20530;-76
2021/09/07 06:06:24;;;;;;;15.23;9.70;;;;;;;13.88;74.91;96998.03;4953505;29;20047;-75
2021/09/07 06:08:51;;;;;;;17.50;9.95;;;;;;;13.98;74.26;96999.63;4953876;29;20047;-75
2021/09/07 06:11:17;;;;;;;17.20;9.32;;;;;;;14.10;74.67;96997.06;4953451;29;20046;-76
2021/09/07 06:13:44;;;;;;;17.63;10.15;;;;;;;14.16;75.24;97001.22;4953941;29;20053;-75
2021/09/07 06:16:12;;;;;;;17.13;10.13;;;;;;;14.17;74.31;96997.34;4953233;29;20066;-76
2021/09/07 06:18:38;;;;;;;19.77;9.32;;;;;;;14.15;74.01;96994.16;4953643;28;20058;-76
2021/09/07 06:21:05;;;;;;;15.70;10.10;;;;;;;14.18;74.29;96990.72;4953071;29;20040;-75
2021/09/07 06:23:31;;;;;;;16.90;9.68;;;;;;;14.26;74.31;96995.41;4954000;29;20396;-74
2021/09/07 06:25:59;;;;;;;15.35;9.93;;;;;;;14.38;73.84;96996.66;4953465;29;20043;-75
2021/09/07 06:28:27;;;;;;;15.20;10.23;;;;;;;14.43;73.49;96993.75;4953270;29;20072;-74
2021/09/07 06:30:54;;;;;;;15.98;9.73;;;;;;;14.50;73.03;97002.28;4953526;29;20051;-76
2021/09/07 06:33:22;;;;;;;14.70;9.63;;;;;;;14.49;72.66;96997.94;4952243;29;20418;-75
2021/09/07 06:35:49;;;;;;;13.82;10.30;;;;;;;14.52;73.31;97002.78;4953560;29;20047;-75
2021/09/07 06:38:15;;;;;;;15.63;10.00;;;;;;;14.64;74.14;97000.16;4953046;28;20047;-75
2021/09/07 06:40:42;;;;;;;15.25;9.45;;;;;;;14.76;73.78;97008.47;4953566;29;20652;-75
2021/09/07 06:43:09;;;;;;;16.52;9.48;;;;;;;14.85;73.45;97006.50;4953056;29;20055;-75
2021/09/07 06:45:36;;;;;;;14.68;9.82;;;;;;;14.91;73.34;97006.31;4953388;29;20059;-75
2021/09/07 06:48:03;;;;;;;14.27;10.25;;;;;;;14.97;73.84;97007.75;4953093;29;20058;-76
2021/09/07 06:50:30;;;;;;;13.80;9.45;;;;;;;15.07;73.70;97001.88;4953362;29;20044;-75
2021/09/07 06:52:57;;;;;;;15.63;10.32;;;;;;;15.10;73.93;97004.78;4953464;29;20055;-76
2021/09/07 06:55:23;;;;;;;20.23;12.23;;;;;;;15.12;72.55;96998.94;4952937;29;20129;-75
2021/09/07 06:57:50;;;;;;;18.15;11.02;;;;;;;15.23;72.54;96999.38;4953036;29;20051;-75
2021/09/07 07:00:17;;;;;;;14.02;10.27;;;;;;;15.29;73.02;97004.31;4952703;29;20411;-76
2021/09/07 07:02:43;;;;;;;14.55;9.82;;;;;;;15.40;73.08;97008.31;4952402;29;20129;-76
2021/09/07 07:05:11;;;;;;;14.48;10.00;;;;;;;15.51;73.18;97005.97;4952475;29;20058;-77
2021/09/07 07:07:39;;;;;;;16.98;10.93;;;;;;;15.68;72.03;97009.75;4953026;28;20051;-75
2021/09/07 07:10:06;;;;;;;18.67;10.88;;;;;;;15.76;71.78;97011.63;4952706;29;20050;-76
2021/09/07 07:12:33;;;;;;;18.17;10.90;;;;;;;15.82;72.36;97011.09;4952907;29;20040;-77
2021/09/07 07:15:00;;;;;;;14.90;10.18;;;;;;;15.94;72.52;97015.84;4953037;29;20047;-77
2021/09/07 07:17:27;;;;;;;14.07;10.18;;;;;;;16.04;71.93;97011.88;4952733;29;20050;-78
2021/09/07 07:19:53;;;;;;;18.30;10.32;;;;;;;16.27;72.29;97015.84;4952768;29;20490;-77
2021/09/07 07:22:20;;;;;;;16.63;10.48;;;;;;;16.85;67.42;97021.38;4952164;29;20043;-78
2021/09/07 07:24:48;;;;;;;14.45;9.38;;;;;;;17.53;65.38;97023.53;4952751;29;20569;-78
2021/09/07 07:27:15;;;;;;;16.70;10.88;;;;;;;17.84;63.19;97017.41;4952158;29;20054;-77
2021/09/07 07:29:41;;;;;;;13.73;10.00;;;;;;;17.91;62.63;97018.44;4952943;29;20126;-78
2021/09/07 07:32:08;;;;;;;16.40;10.82;;;;;;;17.95;63.23;97015.78;4951836;29;20145;-76
2021/09/07 07:34:34;;;;;;;13.80;10.05;;;;;;;17.99;63.31;97009.22;4933598;29;20055;-80
2021/09/07 07:37:04;;;;;;;15.68;10.07;;;;;;;18.25;64.29;97010.72;4933677;29;20044;-76
2021/09/07 07:39:31;;;;;;;13.82;10.15;;;;;;;18.44;61.39;97005.34;4932962;29;20048;-76
2021/09/07 07:41:58;;;;;;;14.68;10.90;;;;;;;18.90;59.81;97008.53;4933294;29;20047;-76
2021/09/07 07:44:25;;;;;;;17.15;10.85;;;;;;;19.28;58.84;97009.84;4933149;29;20048;-76
2021/09/07 07:46:52;;;;;;;16.92;11.25;;;;;;;19.20;57.76;97013.59;4933589;29;20068;-75
2021/09/07 07:49:19;;;;;;;17.48;10.65;;;;;;;19.85;58.05;97016.69;4932726;29;20054;-77
2021/09/07 07:51:46;;;;;;;16.77;10.63;;;;;;;20.76;55.47;97020.84;4933670;29;20059;-76
2021/09/07 07:54:13;;;;;;;14.82;10.43;;;;;;;21.00;53.95;97012.19;4932719;29;20051;-76
2021/09/07 07:56:40;;;;;;;15.52;9.75;;;;;;;21.57;52.37;97015.88;4925622;29;20539;-77
2021/09/07 07:59:07;;;;;;;15.98;9.82;;;;;;;22.33;49.88;97009.38;4932917;29;20044;-77
2021/09/07 08:01:34;;;;;;;16.33;10.27;;;;;;;22.59;49.01;97014.81;4933288;29;20062;-76
2021/09/07 08:04:00;;;;;;;17.13;9.98;;;;;;;22.85;49.18;97016.66;4948389;29;20043;-75
2021/09/07 08:06:27;;;;;;;15.07;10.13;;;;;;;23.32;48.37;97011.53;4951978;29;20050;-76
2021/09/07 08:08:53;;;;;;;16.92;10.18;;;;;;;24.01;47.79;97019.94;4952404;29;20063;-75
2021/09/07 08:11:20;;;;;;;11.88;8.65;;;;;;;24.46;45.16;97018.56;4951684;29;20054;-76
2021/09/07 08:13:46;;;;;;;14.18;9.10;;;;;;;24.86;43.75;97013.91;4952426;29;20051;-77
2021/09/07 08:16:14;;;;;;;12.40;9.18;;;;;;;25.38;42.78;97021.91;4951871;29;20415;-76
2021/09/07 08:18:41;;;;;;;13.13;9.57;;;;;;;25.79;41.14;97021.47;4953259;28;20051;-77
2021/09/07 08:21:07;;;;;;;15.00;9.57;;;;;;;26.08;41.10;97020.22;4955749;29;20055;-76
2021/09/07 08:23:34;;;;;;;12.23;8.63;;;;;;;26.23;41.68;97024.53;4955784;29;20046;-76
2021/09/07 08:26:00;;;;;;;11.95;8.65;;;;;;;26.43;40.16;97018.50;4955868;29;20043;-76
2021/09/07 08:28:27;;;;;;;17.25;9.88;;;;;;;26.34;40.39;97009.75;4955598;29;20047;-76
2021/09/07 08:30:53;;;;;;;16.40;9.10;;;;;;;26.39;40.21;97017.69;4955673;29;20051;-75
2021/09/07 08:33:21;;;;;;;13.73;9.50;;;;;;;25.70;41.40;97013.50;4955379;29;20058;-75
2021/09/07 08:35:48;;;;;;;11.05;8.90;;;;;;;24.90;43.48;97013.88;4955921;29;20055;-77
2021/09/07 08:38:14;;;;;;;12.25;8.43;;;;;;;25.56;43.31;97008.75;4955174;29;20066;-78
2021/09/07 08:40:42;;;;;;;11.18;8.82;;;;;;;26.28;42.23;97012.16;4955655;29;20055;-76
2021/09/07 08:43:09;;;;;;;15.88;8.82;;;;;;;26.89;42.16;97000.69;4955154;29;20126;-76
2021/09/07 08:45:38;;;;;;;11.43;8.13;;;;;;;27.31;39.85;97005.97;4955625;29;20055;-77
2021/09/07 08:48:05;;;;;;;10.00;8.10;;;;;;;27.82;39.74;97015.53;4955238;29;20503;-76
2021/09/07 08:50:34;;;;;;;10.30;8.45;;;;;;;27.86;35.48;97018.28;4955643;29;20538;-76
2021/09/07 08:53:01;;;;;;;11.40;8.10;;;;;;;27.97;37.72;97018.94;4955479;29;20051;-76
2021/09/07 08:55:28;;;;;;;11.13;8.45;;;;;;;28.01;35.79;97019.72;4955214;29;20487;-77
2021/09/07 08:57:55;;;;;;;12.23;8.07;;;;;;;28.15;37.77;97010.38;4955415;29;20047;-77
2021/09/07 09:00:26;;;;;;;12.13;8.48;;;;;;;28.43;36.50;97023.25;4954863;29;20065;-78
2021/09/07 09:02:52;;;;;;;10.50;8.38;;;;;;;28.66;35.78;97019.75;4955169;29;20062;-78
2021/09/07 09:05:26;;;;;;;10.63;8.43;;;;;;;28.74;34.99;97031.66;4954857;29;20051;-76
2021/09/07 09:07:54;;;;;;;11.10;8.73;;;;;;;29.08;34.07;97034.41;4955219;29;20074;-76
2021/09/07 09:10:22;;;;;;;10.57;8.02;;;;;;;29.50;35.08;97027.31;4954691;29;20550;-78
2021/09/07 09:12:48;;;;;;;10.70;8.20;;;;;;;29.59;33.23;97021.94;4955077;29;20410;-76
2021/09/07 09:15:19;;;;;;;11.65;8.43;;;;;;;29.54;34.08;97025.25;4954603;29;20043;-78
2021/09/07 09:17:45;;;;;;;22.73;9.27;;;;;;;29.92;35.32;97027.00;4955146;29;20122;-77
2021/09/07 09:20:16;;;;;;;14.43;8.68;;;;;;;30.24;34.43;97027.19;4954517;29;20043;-78
2021/09/07 09:22:46;;;;;;;11.15;8.48;;;;;;;30.43;34.59;97025.59;4954922;29;20059;-78
2021/09/07 09:25:32;;;;;;;11.65;8.50;;;;;;;30.69;34.23;97023.84;4954480;29;20047;-77
2021/09/07 09:28:22;;;;;;;11.80;7.85;;;;;;;30.46;32.83;97027.56;4954878;29;20047;-76
2021/09/07 09:30:52;;;;;;;10.80;8.15;;;;;;;30.07;33.60;97031.09;4954631;28;20550;-76
2021/09/07 09:33:21;;;;;;;11.00;7.82;;;;;;;29.76;35.28;97034.09;4954132;29;20046;-77
2021/09/07 09:35:53;;;;;;;10.23;7.47;;;;;;;29.49;37.07;97028.50;4954888;29;20066;-78
2021/09/07 09:38:22;;;;;;;12.60;7.80;;;;;;;29.40;35.87;97030.28;4954121;29;20051;-78
2021/09/07 09:40:57;;;;;;;11.68;9.18;;;;;;;29.00;35.29;97028.09;4954588;29;20690;-78
2021/09/07 09:43:27;;;;;;;13.70;9.13;;;;;;;28.63;36.91;97026.19;4954038;29;20054;-76
2021/09/07 09:45:54;;;;;;;12.43;8.95;;;;;;;28.19;37.61;97030.72;4954604;29;20051;-77
2021/09/07 09:48:23;;;;;;;12.70;8.65;;;;;;;27.57;39.53;97029.72;4954238;29;20043;-76
2021/09/07 09:50:51;;;;;;;12.95;9.65;;;;;;;27.04;40.78;97025.34;4954285;29;20098;-78
2021/09/07 09:53:18;;;;;;;14.90;8.80;;;;;;;26.75;42.32;97024.72;4953852;29;20625;-78
2021/09/07 09:55:47;;;;;;;13.88;9.23;;;;;;;26.53;43.82;97017.66;4954506;29;20069;-76
2021/09/07 09:58:15;;;;;;;12.10;8.95;;;;;;;26.35;42.09;97011.31;4953733;29;20055;-76
2021/09/07 10:00:44;;;;;;;12.32;8.90;;;;;;;26.25;42.27;97008.16;4954427;29;20159;-78
2021/09/07 10:03:11;;;;;;;11.07;8.20;;;;;;;26.25;41.04;97013.75;4953659;29;20409;-76
2021/09/07 10:05:40;;;;;;;11.43;8.23;;;;;;;26.02;42.75;97005.88;4954037;29;20051;-76
2021/09/07 10:08:07;;;;;;;12.18;9.18;;;;;;;25.98;44.91;96998.72;4953580;29;20411;-77
2021/09/07 10:10:36;;;;;;;12.00;7.72;;;;;;;25.98;44.89;97002.28;4954102;29;20055;-76
2021/09/07 10:13:07;;;;;;;10.57;7.88;;;;;;;26.01;44.26;96992.34;4953779;29;20096;-76
2021/09/07 10:15:40;;;;;;;11.18;8.13;;;;;;;26.02;43.76;96991.13;4953925;29;20055;-77
2021/09/07 10:18:32;;;;;;;12.77;8.23;;;;;;;26.10;42.05;96992.72;4953448;29;20137;-75
2021/09/07 10:21:06;;;;;;;12.02;8.07;;;;;;;26.08;43.60;96991.50;4953927;29;20164;-76
2021/09/07 10:23:53;;;;;;;12.10;8.75;;;;;;;25.98;41.82;96987.53;4953745;29;20054;-77
2021/09/07 10:26:56;;;;;;;9.52;7.30;;;;;;;25.75;41.48;96988.81;4953270;29;20118;-78
2021/09/07 10:29:50;;;;;;;14.63;8.90;;;;;;;25.48;41.79;96987.66;4953346;29;20047;-75
2021/09/07 10:32:32;;;;;;;11.68;7.75;;;;;;;25.23;43.69;96988.47;4918629;29;20051;-76
2021/09/07 10:35:16;;;;;;;11.43;8.85;;;;;;;25.09;45.09;96994.03;4953667;29;20082;-76
2021/09/07 10:38:09;;;;;;;11.57;8.43;;;;;;;24.95;44.65;96980.06;4953598;29;20054;-77
2021/09/07 10:40:49;;;;;;;9.70;7.50;;;;;;;24.83;44.42;96984.03;4953384;29;20130;-77
2021/09/07 10:43:48;;;;;;;14.98;9.05;;;;;;;24.76;45.89;96978.47;4952726;29;20160;-77
2021/09/07 10:46:15;;;;;;;12.90;8.43;;;;;;;24.65;47.25;96974.88;4952848;29;20043;-76
2021/09/07 10:48:43;;;;;;;14.27;9.85;;;;;;;24.58;46.90;96970.06;4953449;29;20047;-76
2021/09/07 10:51:10;;;;;;;12.95;9.80;;;;;;;24.59;47.73;96974.47;4952952;29;20051;-76
2021/09/07 10:53:36;;;;;;;12.88;9.88;;;;;;;24.60;48.35;96966.91;4953533;29;20043;-75
2021/09/07 10:56:26;;;;;;;12.18;9.10;;;;;;;24.54;44.29;96969.28;4952988;29;20051;-76
2021/09/07 10:58:52;;;;;;;9.85;7.85;;;;;;;24.45;44.76;96966.06;4953379;29;20139;-77
2021/09/07 11:01:26;;;;;;;14.07;8.25;;;;;;;24.38;43.35;96971.59;4952612;29;20054;-78
2021/09/07 11:04:33;;;;;;;10.18;6.95;;;;;;;24.27;42.71;96974.31;4952945;29;20043;-76
2021/09/07 11:07:01;;;;;;;10.30;6.70;;;;;;;24.23;42.96;96975.53;4893798;29;20475;-77
2021/09/07 11:09:52;;;;;;;10.80;7.53;;;;;;;24.37;44.50;96970.00;4893639;29;20051;-77
2021/09/07 11:12:30;;;;;;;11.38;7.20;;;;;;;24.41;42.56;96968.03;4932124;29;20051;-76
2021/09/07 11:15:08;;;;;;;11.73;7.25;;;;;;;24.41;41.69;96965.25;4953115;29;20047;-79
2021/09/07 11:17:36;;;;;;;11.18;7.95;;;;;;;24.39;42.27;96962.09;4952852;29;20114;-78
2021/09/07 11:20:07;;;;;;;11.95;7.20;;;;;;;24.40;43.01;96958.09;4952591;29;20451;-77
2021/09/07 11:22:35;;;;;;;11.07;6.82;;;;;;;24.38;43.29;96966.03;4952975;29;20055;-77
2021/09/07 11:25:04;;;;;;;10.38;7.50;;;;;;;24.34;42.53;96960.44;4952462;29;20051;-76
2021/09/07 11:28:05;;;;;;;11.02;7.45;;;;;;;24.35;43.00;96962.06;4952991;29;20050;-76